Time;durP1;ratioP1;P1;durP2;ratioP2;P2;SDS_P1;SDS_P2;PMS_P1;PMS_P2;Temp;Humidity;BMP_temperature;BMP_pressure;BME280_temperature;BME280_humidity;BME280_pressure;Samples;Min_cycle;Max_cycle;Signal;HPM_P1;HPM_P2
2022/10/28 00:01:24;;;;;;;32.90;15.10;;;;;;;10.18;68.88;100186.18;103091;1303;96550;-79
2022/10/28 00:03:55;;;;;;;32.00;16.20;;;;;;;10.18;69.00;100186.34;103079;1303;107398;-78
2022/10/28 00:06:32;;;;;;;30.50;15.50;;;;;;;10.18;69.06;100187.07;103089;1303;100152;-78
2022/10/28 00:09:01;;;;;;;28.00;15.10;;;;;;;10.15;68.96;100184.36;102973;1303;99250;-78
2022/10/28 00:11:34;;;;;;;34.80;17.80;;;;;;;10.14;69.04;100180.87;103086;1290;112464;-79
2022/10/28 00:14:04;;;;;;;29.10;15.70;;;;;;;10.12;69.03;100178.82;103069;1303;99297;-80
2022/10/28 00:16:34;;;;;;;29.80;16.10;;;;;;;10.12;69.22;100177.24;103083;1298;106008;-80
2022/10/28 00:19:04;;;;;;;31.90;16.20;;;;;;;10.11;69.06;100172.87;103095;1305;99248;-78
2022/10/28 00:21:35;;;;;;;32.20;16.50;;;;;;;10.10;69.12;100174.70;103138;1305;99316;-78
2022/10/28 00:24:04;;;;;;;33.30;17.40;;;;;;;10.09;69.34;100172.62;103097;1302;112542;-78
2022/10/28 00:26:35;;;;;;;30.40;17.10;;;;;;;10.08;69.32;100170.34;103156;1306;98102;-80
2022/10/28 00:29:05;;;;;;;36.00;17.00;;;;;;;10.07;69.41;100167.93;103062;1294;107496;-80
2022/10/28 00:31:36;;;;;;;35.60;16.60;;;;;;;10.05;69.41;100163.94;103046;1296;99196;-81
2022/10/28 00:34:08;;;;;;;32.10;16.10;;;;;;;10.05;69.52;100166.11;103047;1304;99225;-81
2022/10/28 00:36:39;;;;;;;28.50;15.30;;;;;;;10.05;69.52;100168.23;103033;1303;112516;-79
2022/10/28 00:39:16;;;;;;;30.00;16.50;;;;;;;10.04;69.55;100161.20;103091;1298;99234;-79
2022/10/28 00:41:49;;;;;;;33.30;16.70;;;;;;;10.02;69.56;100158.11;103059;1302;107530;-80
2022/10/28 00:44:39;;;;;;;31.70;16.60;;;;;;;10.00;69.51;100156.23;103053;1304;99240;-79
2022/10/28 00:47:25;;;;;;;28.90;15.40;;;;;;;9.98;69.57;100147.70;103077;1305;99263;-80
2022/10/28 00:50:12;;;;;;;32.80;17.00;;;;;;;9.96;69.66;100151.31;103061;1302;112389;-80
2022/10/28 00:52:45;;;;;;;30.70;17.20;;;;;;;9.94;69.68;100150.17;103052;1303;99279;-81
2022/10/28 00:55:15;;;;;;;;;;;;;;;9.92;69.68;100150.66;103077;1305;107631;-80
2022/10/28 00:57:45;;;;;;;30.20;16.10;;;;;;;9.88;69.73;100148.38;103047;1304;99333;-79
2022/10/28 01:00:14;;;;;;;30.80;16.30;;;;;;;9.86;69.72;100149.03;103079;1303;97539;-79
2022/10/28 01:02:49;;;;;;;29.60;16.00;;;;;;;9.82;69.60;100148.31;103108;1303;112206;-80
2022/10/28 01:05:28;;;;;;;31.40;17.20;;;;;;;9.79;69.76;100144.75;103145;1303;99319;-81
2022/10/28 01:08:00;;;;;;;33.20;17.60;;;;;;;9.77;69.76;100140.44;103141;1305;108146;-84
2022/10/28 01:10:50;;;;;;;31.90;18.40;;;;;;;9.76;69.60;100138.41;103065;1304;99361;-78
2022/10/28 01:13:25;;;;;;;32.60;17.90;;;;;;;9.72;69.74;100139.64;103074;1300;99319;-79
2022/10/28 01:16:06;;;;;;;32.30;16.90;;;;;;;9.72;69.93;100138.63;103063;1303;112827;-79
2022/10/28 01:18:55;;;;;;;31.20;17.40;;;;;;;9.70;69.91;100135.85;103117;1297;100389;-79
2022/10/28 01:21:39;;;;;;;31.10;18.50;;;;;;;9.70;69.98;100136.23;103073;1288;107474;-77
2022/10/28 01:24:07;;;;;;;33.90;16.70;;;;;;;9.70;70.11;100136.59;103042;1297;99219;-77
2022/10/28 01:26:38;;;;;;;32.70;16.50;;;;;;;9.69;70.05;100134.15;103055;1297;99899;-77
2022/10/28 01:29:44;;;;;;;33.00;18.40;;;;;;;9.68;70.16;100131.35;103023;1304;112252;-78
2022/10/28 01:32:42;;;;;;;32.30;16.40;;;;;;;9.67;70.23;100130.34;102840;1298;99200;-78
2022/10/28 01:35:26;;;;;;;33.20;17.20;;;;;;;9.66;70.21;100132.16;103066;1304;106862;-78
2022/10/28 01:38:11;;;;;;;31.50;17.30;;;;;;;9.66;70.28;100133.77;103054;1298;96630;-77
2022/10/28 01:40:58;;;;;;;29.30;15.50;;;;;;;9.65;70.29;100133.45;103154;1296;99221;-77
2022/10/28 01:43:52;;;;;;;29.90;15.40;;;;;;;9.63;70.29;100131.98;103105;1302;112450;-78
2022/10/28 01:46:40;;;;;;;;;;;;;;;9.62;70.42;100127.95;103140;1304;99294;-78
2022/10/28 01:49:33;;;;;;;29.60;16.10;;;;;;;9.59;70.42;100123.67;103095;1301;107476;-78
2022/10/28 01:52:06;;;;;;;33.10;16.20;;;;;;;9.58;70.49;100123.19;102954;1303;99384;-78
2022/10/28 01:54:36;;;;;;;29.80;16.40;;;;;;;9.58;70.48;100121.23;103051;1286;99198;-78
2022/10/28 01:57:04;;;;;;;30.60;16.60;;;;;;;9.58;70.46;100119.65;103044;1298;112476;-78
2022/10/28 01:59:34;;;;;;;33.00;16.60;;;;;;;9.57;70.55;100118.30;103099;1305;97992;-77
2022/10/28 02:02:02;;;;;;;27.80;15.60;;;;;;;9.57;70.59;100116.02;103082;1298;107488;-79
2022/10/28 02:04:35;;;;;;;27.20;15.50;;;;;;;9.58;70.71;100114.54;103138;1304;99443;-81
2022/10/28 02:07:04;;;;;;;29.20;14.90;;;;;;;9.59;70.63;100109.88;103162;1297;99324;-79
2022/10/28 02:10:15;;;;;;;31.20;16.30;;;;;;;9.59;70.63;100104.36;103145;1303;112419;-79
2022/10/28 02:12:46;;;;;;;29.40;15.10;;;;;;;9.59;70.67;100103.48;103145;1298;99250;-79
2022/10/28 02:15:46;;;;;;;27.80;15.30;;;;;;;9.59;70.71;100099.04;103042;1303;107426;-79
2022/10/28 02:18:30;;;;;;;30.80;16.00;;;;;;;9.59;70.77;100091.81;102920;1304;99321;-78
2022/10/28 02:21:04;;;;;;;28.00;15.50;;;;;;;9.58;70.81;100090.92;103044;1305;99159;-77
2022/10/28 02:23:54;;;;;;;34.70;17.00;;;;;;;9.59;70.86;100087.35;103105;1303;111497;-79
2022/10/28 02:26:37;;;;;;;29.50;15.90;;;;;;;9.60;70.92;100088.40;103066;1303;96546;-78
2022/10/28 02:29:10;;;;;;;29.10;15.50;;;;;;;9.59;70.85;100084.88;103104;1304;107481;-79
2022/10/28 02:32:00;;;;;;;29.90;14.20;;;;;;;9.60;70.95;100080.41;103130;1303;96569;-79
2022/10/28 02:34:37;;;;;;;28.70;15.30;;;;;;;9.61;71.02;100080.00;103091;1298;99261;-78
2022/10/28 02:37:12;;;;;;;29.90;15.00;;;;;;;9.62;71.06;100079.08;103097;1303;113068;-79
2022/10/28 02:39:46;;;;;;;31.00;15.60;;;;;;;9.64;71.11;100076.46;103073;1297;99302;-80
2022/10/28 02:42:22;;;;;;;28.80;15.60;;;;;;;9.66;71.13;100074.42;103117;1303;106030;-80
2022/10/28 02:44:59;;;;;;;27.50;14.90;;;;;;;9.69;71.13;100074.98;103084;1303;99193;-80
2022/10/28 02:47:32;;;;;;;34.40;16.50;;;;;;;9.71;71.83;100074.51;103119;1303;99258;-82
2022/10/28 02:50:06;;;;;;;29.30;15.20;;;;;;;9.71;71.26;100070.26;103069;1302;112435;-79
2022/10/28 02:52:42;;;;;;;28.70;15.70;;;;;;;9.68;71.26;100066.15;103080;1303;97963;-79
2022/10/28 02:55:10;;;;;;;30.00;16.30;;;;;;;9.65;71.11;100068.27;103122;1305;107465;-79
2022/10/28 02:57:43;;;;;;;29.40;15.80;;;;;;;9.61;71.08;100063.86;103041;1303;96536;-80
2022/10/28 03:00:16;;;;;;;29.10;15.30;;;;;;;9.57;71.22;100065.67;103122;1300;99249;-79
2022/10/28 03:02:45;;;;;;;30.40;16.10;;;;;;;9.53;71.27;100066.27;103131;1303;112549;-78
2022/10/28 03:05:13;;;;;;;30.30;15.70;;;;;;;9.52;71.23;100069.46;103153;1305;99272;-79
2022/10/28 03:07:41;;;;;;;30.50;15.40;;;;;;;9.52;71.39;100068.23;103104;1306;108155;-79
2022/10/28 03:10:09;;;;;;;28.10;14.90;;;;;;;9.52;71.14;100069.29;103159;1297;99242;-80
2022/10/28 03:12:37;;;;;;;28.70;14.70;;;;;;;9.51;71.35;100068.64;103255;1297;99265;-79
2022/10/28 03:15:05;;;;;;;27.80;14.10;;;;;;;9.52;71.34;100070.17;103190;1297;112474;-78
2022/10/28 03:17:33;;;;;;;28.10;14.50;;;;;;;9.50;71.38;100064.44;103118;1305;99217;-79
2022/10/28 03:20:01;;;;;;;28.00;14.30;;;;;;;9.50;71.43;100061.47;103030;1302;106790;-79
2022/10/28 03:22:28;;;;;;;27.30;14.50;;;;;;;9.49;71.43;100059.56;103068;1303;99316;-80
2022/10/28 03:24:56;;;;;;;28.30;14.40;;;;;;;9.49;71.54;100060.77;103098;1303;99301;-80
2022/10/28 03:27:24;;;;;;;26.20;13.70;;;;;;;9.49;71.48;100057.61;103043;1304;112218;-78
2022/10/28 03:29:52;;;;;;;27.10;14.30;;;;;;;9.48;71.52;100059.58;103071;1303;99236;-78
2022/10/28 03:32:20;;;;;;;25.60;14.40;;;;;;;9.49;71.59;100060.98;102916;1299;107156;-79
2022/10/28 03:34:48;;;;;;;28.30;14.30;;;;;;;9.48;71.67;100057.47;103058;1303;99320;-80
2022/10/28 03:37:16;;;;;;;28.30;14.10;;;;;;;9.48;71.67;100056.42;103057;1297;99233;-78
2022/10/28 03:39:44;;;;;;;28.00;15.30;;;;;;;9.48;71.61;100053.94;103056;1302;111979;-80
2022/10/28 03:42:11;;;;;;;26.20;14.50;;;;;;;9.48;71.70;100056.59;103124;1302;99258;-77
2022/10/28 03:44:39;;;;;;;28.80;13.90;;;;;;;9.48;71.79;100052.89;103033;1298;107230;-79
2022/10/28 03:47:07;;;;;;;27.10;13.50;;;;;;;9.48;71.74;100053.26;103047;1304;99308;-78
2022/10/28 03:49:35;;;;;;;26.20;13.60;;;;;;;9.47;71.74;100052.91;103043;1304;99225;-79
2022/10/28 03:52:04;;;;;;;25.10;13.20;;;;;;;9.46;71.74;100048.01;103048;1302;111191;-79
2022/10/28 03:54:32;;;;;;;27.30;13.60;;;;;;;9.47;71.86;100044.80;103091;1297;99316;-79
2022/10/28 03:57:00;;;;;;;30.50;14.70;;;;;;;9.48;71.76;100044.36;103038;1305;107459;-79
2022/10/28 03:59:28;;;;;;;26.10;12.80;;;;;;;9.48;71.85;100040.46;103050;1304;99321;-78
2022/10/28 04:01:56;;;;;;;25.50;12.60;;;;;;;9.48;71.82;100042.95;103054;1304;99231;-78
2022/10/28 04:04:24;;;;;;;27.60;13.20;;;;;;;9.51;71.95;100043.34;103139;1303;112498;-76
2022/10/28 04:06:57;;;;;;;27.40;12.50;;;;;;;9.51;71.99;100038.18;103117;1304;96575;-77
2022/10/28 04:09:25;;;;;;;26.80;12.50;;;;;;;9.52;71.95;100036.92;103163;1303;107537;-77
2022/10/28 04:11:53;;;;;;;25.20;12.70;;;;;;;9.52;72.03;100034.26;103104;1303;96611;-77
2022/10/28 04:14:20;;;;;;;25.90;12.30;;;;;;;9.52;72.03;100030.86;103078;1303;99316;-77
2022/10/28 04:16:48;;;;;;;28.40;13.20;;;;;;;9.52;71.99;100033.88;103089;1303;112079;-77
2022/10/28 04:19:16;;;;;;;24.40;13.00;;;;;;;9.51;72.01;100029.35;103041;1305;96612;-77
2022/10/28 04:21:43;;;;;;;29.00;13.60;;;;;;;9.52;72.18;100024.89;103001;1303;107441;-77
2022/10/28 04:24:14;;;;;;;27.70;13.30;;;;;;;9.53;72.14;100026.61;103025;1303;96487;-77
2022/10/28 04:26:41;;;;;;;26.40;12.70;;;;;;;9.53;72.09;100024.11;103059;1302;98364;-77
2022/10/28 04:29:09;;;;;;;25.50;12.40;;;;;;;9.53;72.16;100023.39;103026;1296;112487;-76
2022/10/28 04:31:37;;;;;;;25.10;12.40;;;;;;;9.54;72.19;100018.92;103078;1305;99066;-77
2022/10/28 04:34:05;;;;;;;24.80;12.60;;;;;;;9.56;72.27;100015.27;103062;1305;107436;-80
2022/10/28 04:36:33;;;;;;;28.80;12.40;;;;;;;9.57;72.18;100010.81;103104;1305;99358;-77
2022/10/28 04:39:00;;;;;;;25.10;12.50;;;;;;;9.55;72.16;100012.31;103070;1305;99217;-79
2022/10/28 04:41:28;;;;;;;23.90;12.10;;;;;;;9.54;72.14;100012.19;103051;1303;110587;-79
2022/10/28 04:43:56;;;;;;;24.40;11.90;;;;;;;9.52;72.16;100014.92;102909;1298;246942;-78
2022/10/28 04:46:24;;;;;;;23.50;11.90;;;;;;;9.49;72.17;100009.42;103006;1303;107675;-76
2022/10/28 04:48:51;;;;;;;25.50;12.80;;;;;;;9.46;72.16;100002.52;102984;1305;96582;-78
2022/10/28 04:51:19;;;;;;;23.80;12.10;;;;;;;9.42;72.14;100006.79;103031;1303;99224;-79
2022/10/28 04:53:49;;;;;;;24.40;12.40;;;;;;;9.40;72.23;100004.59;103045;1305;112000;-77
2022/10/28 04:56:17;;;;;;;24.80;11.70;;;;;;;9.38;72.31;100005.02;103079;1303;98073;-78
2022/10/28 04:58:47;;;;;;;22.60;11.40;;;;;;;9.36;72.25;100007.11;103108;1305;107495;-79
2022/10/28 05:01:15;;;;;;;24.60;12.10;;;;;;;9.34;72.23;100007.55;103141;1303;96546;-78
2022/10/28 05:03:43;;;;;;;23.40;11.40;;;;;;;9.35;72.49;100008.60;103130;1298;99225;-79
2022/10/28 05:06:11;;;;;;;24.90;10.60;;;;;;;9.37;72.44;100009.20;103018;1304;112151;-81
2022/10/28 05:08:39;;;;;;;24.90;11.30;;;;;;;9.39;72.48;100009.80;103041;1304;99331;-76
2022/10/28 05:11:07;;;;;;;22.70;10.90;;;;;;;9.41;72.45;100009.35;103014;1302;107564;-78
2022/10/28 05:13:34;;;;;;;24.80;11.50;;;;;;;9.41;72.44;100006.84;103057;1304;96482;-79
2022/10/28 05:16:03;;;;;;;24.70;11.90;;;;;;;9.41;72.40;100008.45;103081;1296;99235;-78
2022/10/28 05:18:30;;;;;;;23.20;12.10;;;;;;;9.41;72.39;100004.39;103081;1298;113583;-78
2022/10/28 05:20:58;;;;;;;23.10;11.30;;;;;;;9.40;72.44;100006.39;103054;1295;98389;-76
2022/10/28 05:23:26;;;;;;;21.80;10.60;;;;;;;9.38;72.36;100008.96;103013;1298;107472;-78
2022/10/28 05:25:57;;;;;;;22.20;10.40;;;;;;;9.36;72.43;100005.17;103052;1305;98478;-77
2022/10/28 05:28:25;;;;;;;22.80;11.40;;;;;;;9.34;72.47;100005.30;103159;1296;97657;-77
2022/10/28 05:30:53;;;;;;;20.90;9.10;;;;;;;9.31;72.48;100001.02;103152;1299;112505;-79
2022/10/28 05:33:21;;;;;;;20.90;10.40;;;;;;;9.29;72.46;99999.71;103180;1302;99302;-78
2022/10/28 05:35:49;;;;;;;22.70;11.60;;;;;;;9.27;72.52;99998.56;103130;1304;108466;-78
2022/10/28 05:38:17;;;;;;;20.90;9.50;;;;;;;9.26;72.76;99998.08;103182;1296;99331;-79
2022/10/28 05:40:45;;;;;;;20.60;10.60;;;;;;;9.29;72.66;99999.54;103170;1304;99391;-80
2022/10/28 05:43:13;;;;;;;20.90;10.00;;;;;;;9.32;72.70;99999.57;103098;1302;112604;-80
2022/10/28 05:45:41;;;;;;;22.60;10.90;;;;;;;9.35;72.78;99999.36;103111;1303;99305;-79
2022/10/28 05:48:09;;;;;;;21.00;10.30;;;;;;;9.39;72.87;99992.77;102930;1307;105889;-78
2022/10/28 05:50:36;;;;;;;18.50;9.00;;;;;;;9.44;72.81;99994.86;103121;1303;99364;-79
2022/10/28 05:53:04;;;;;;;22.30;10.70;;;;;;;9.49;72.82;99994.20;103147;1304;99341;-78
2022/10/28 05:55:34;;;;;;;22.00;9.30;;;;;;;9.55;72.86;99997.13;102944;1303;112392;-79
2022/10/28 05:58:02;;;;;;;24.10;9.70;;;;;;;9.59;72.85;99998.63;103044;1291;99346;-82
2022/10/28 06:00:30;;;;;;;20.10;9.50;;;;;;;9.64;72.79;99997.64;103050;1303;107531;-81
2022/10/28 06:03:10;;;;;;;20.80;10.10;;;;;;;9.69;72.84;99999.54;102859;1298;97210;-81
2022/10/28 06:05:43;;;;;;;19.20;8.60;;;;;;;9.74;72.90;99995.02;103147;1305;99223;-80
2022/10/28 06:08:13;;;;;;;18.80;9.00;;;;;;;9.78;72.86;99998.16;103128;1290;112628;-81
2022/10/28 06:10:48;;;;;;;18.90;9.20;;;;;;;9.80;72.88;100000.54;103091;1304;99420;-82
2022/10/28 06:13:25;;;;;;;19.90;9.10;;;;;;;9.80;72.99;99999.45;103032;1296;107525;-82
2022/10/28 06:15:56;;;;;;;18.60;8.20;;;;;;;9.81;72.91;99998.19;103098;1303;99904;-80
2022/10/28 06:18:24;;;;;;;21.40;8.50;;;;;;;9.83;72.95;100002.65;103083;1303;99813;-82
2022/10/28 06:20:58;;;;;;;19.40;8.20;;;;;;;9.87;72.92;100000.34;103057;1296;112642;-82
2022/10/28 06:23:27;;;;;;;18.00;8.40;;;;;;;9.92;73.00;100004.52;103124;1299;96951;-81
2022/10/28 06:26:00;;;;;;;22.10;8.60;;;;;;;9.96;72.94;100005.48;103075;1303;107399;-79
2022/10/28 06:28:30;;;;;;;22.20;8.10;;;;;;;10.04;73.05;100001.00;103108;1297;99311;-80
2022/10/28 06:31:03;;;;;;;17.70;7.60;;;;;;;10.11;73.06;99995.83;102983;1302;98291;-81
2022/10/28 06:33:34;;;;;;;19.00;7.80;;;;;;;10.20;73.22;100000.48;103069;1296;112529;-81
2022/10/28 06:36:02;;;;;;;16.90;7.60;;;;;;;10.29;73.23;99998.73;103166;1298;97888;-80
2022/10/28 06:38:30;;;;;;;17.50;7.70;;;;;;;10.37;73.24;99999.02;103149;1305;107178;-82
2022/10/28 06:40:58;;;;;;;15.80;6.70;;;;;;;10.45;73.34;99998.74;103172;1296;99240;-81
2022/10/28 06:43:27;;;;;;;13.30;6.50;;;;;;;10.52;73.19;99999.25;103164;1306;99234;-79
2022/10/28 06:45:56;;;;;;;15.40;6.70;;;;;;;10.57;73.17;100000.39;103163;1296;112493;-80
2022/10/28 06:48:24;;;;;;;16.50;6.90;;;;;;;10.62;73.09;100005.05;103140;1302;96960;-81
2022/10/28 06:50:55;;;;;;;18.20;6.90;;;;;;;10.66;73.04;100006.75;103151;1296;107543;-80
2022/10/28 06:53:24;;;;;;;16.40;7.20;;;;;;;10.71;73.16;100001.34;103152;1296;99372;-80
2022/10/28 06:55:57;;;;;;;16.20;6.60;;;;;;;10.76;73.09;100000.02;103146;1300;99257;-80
2022/10/28 06:58:25;;;;;;;17.00;7.70;;;;;;;10.78;73.02;99992.59;103055;1302;112455;-81
2022/10/28 07:01:04;;;;;;;15.70;7.30;;;;;;;10.80;73.03;99995.85;103121;1304;100013;-80
2022/10/28 07:03:47;;;;;;;16.50;7.20;;;;;;;10.82;73.02;100001.75;103014;1298;105489;-80
2022/10/28 07:06:16;;;;;;;16.20;6.80;;;;;;;10.85;73.11;100007.09;103080;1298;99301;-81
2022/10/28 07:08:44;;;;;;;17.20;6.90;;;;;;;10.87;72.99;100014.94;103150;1297;99265;-80
2022/10/28 07:11:11;;;;;;;16.40;7.00;;;;;;;10.89;73.07;100013.41;103103;1296;112475;-82
2022/10/28 07:13:39;;;;;;;18.40;7.40;;;;;;;10.89;73.13;100010.39;103109;1298;99285;-82
2022/10/28 07:16:11;;;;;;;15.90;6.50;;;;;;;10.93;73.06;100010.02;103137;1301;107426;-79
2022/10/28 07:18:38;;;;;;;20.30;7.10;;;;;;;10.95;73.06;100010.22;102968;1299;99245;-79
2022/10/28 07:21:06;;;;;;;19.00;7.40;;;;;;;10.98;73.03;100018.01;103173;1303;96569;-81
2022/10/28 07:23:34;;;;;;;18.70;7.30;;;;;;;11.01;73.04;100020.33;103086;1304;112517;-80
2022/10/28 07:26:03;;;;;;;16.20;6.90;;;;;;;11.08;73.03;100023.48;103123;1300;97731;-77
2022/10/28 07:28:31;;;;;;;17.10;7.20;;;;;;;11.15;73.09;100017.90;103092;1304;107353;-80
2022/10/28 07:31:01;;;;;;;17.00;7.00;;;;;;;11.25;73.01;100012.34;103058;1302;99357;-76
2022/10/28 07:33:29;;;;;;;15.00;6.40;;;;;;;11.32;73.04;100012.61;103004;1301;97960;-79
2022/10/28 07:35:57;;;;;;;14.70;6.80;;;;;;;11.39;73.00;100014.00;102981;1307;112604;-80
2022/10/28 07:38:28;;;;;;;17.70;6.60;;;;;;;11.47;73.14;100021.88;103077;1302;99278;-80
2022/10/28 07:40:56;;;;;;;15.10;6.30;;;;;;;11.56;73.09;100023.99;103103;1302;107508;-80
2022/10/28 07:43:24;;;;;;;13.30;6.00;;;;;;;11.64;73.11;100020.14;103129;1304;99347;-78
2022/10/28 07:45:56;;;;;;;14.80;6.50;;;;;;;11.68;72.93;100011.54;103174;1304;99277;-80
2022/10/28 07:48:24;;;;;;;19.00;6.70;;;;;;;11.70;72.97;100006.08;103060;1305;112405;-78
2022/10/28 07:50:52;;;;;;;14.70;6.30;;;;;;;11.72;72.97;100003.80;103049;1301;99225;-81
2022/10/28 07:53:20;;;;;;;12.00;5.70;;;;;;;11.75;72.94;100001.64;103064;1296;107397;-81
2022/10/28 07:56:00;;;;;;;15.50;5.80;;;;;;;11.81;73.01;100002.53;103203;1303;99357;-79
2022/10/28 07:58:29;;;;;;;15.60;5.60;;;;;;;11.88;72.98;100011.67;103079;1305;99103;-79
2022/10/28 08:01:02;;;;;;;11.70;6.10;;;;;;;11.97;73.00;100011.55;103170;1297;112532;-78
2022/10/28 08:03:30;;;;;;;13.40;5.50;;;;;;;12.03;72.97;100006.19;103133;1304;99205;-79
2022/10/28 08:06:12;;;;;;;13.50;5.70;;;;;;;12.11;72.95;100007.64;103137;1296;107384;-77
2022/10/28 08:08:40;;;;;;;11.40;4.80;;;;;;;12.18;72.71;100014.98;102935;1292;99327;-79
2022/10/28 08:11:21;;;;;;;11.80;5.20;;;;;;;12.25;72.92;100017.05;103028;1304;99228;-78
2022/10/28 08:13:52;;;;;;;14.80;6.10;;;;;;;12.30;72.77;100016.55;103009;1299;112335;-77
2022/10/28 08:16:20;;;;;;;15.50;5.70;;;;;;;12.36;72.73;100018.84;103111;1304;99363;-76
2022/10/28 08:18:48;;;;;;;16.70;6.70;;;;;;;12.43;72.77;100019.98;103021;1301;107431;-77
2022/10/28 08:21:16;;;;;;;13.40;5.50;;;;;;;12.50;72.89;100015.41;103072;1303;99313;-76
2022/10/28 08:23:45;;;;;;;13.90;5.40;;;;;;;12.60;72.79;100013.55;103057;1304;100376;-77
2022/10/28 08:26:15;;;;;;;12.70;5.10;;;;;;;12.71;72.85;100012.11;103160;1303;113106;-77
2022/10/28 08:28:43;;;;;;;11.50;4.90;;;;;;;12.83;72.75;100017.16;103117;1303;99317;-80
2022/10/28 08:31:11;;;;;;;10.50;4.40;;;;;;;12.98;72.73;100023.84;103149;1297;107470;-81
2022/10/28 08:33:44;;;;;;;9.90;4.70;;;;;;;13.17;72.68;100017.60;103054;1296;99199;-80
2022/10/28 08:36:14;;;;;;;10.30;4.30;;;;;;;13.43;72.80;100014.08;103073;1296;99335;-80
2022/10/28 08:38:44;;;;;;;8.70;4.10;;;;;;;13.73;72.74;100005.39;103141;1303;112556;-82
2022/10/28 08:41:35;;;;;;;11.70;4.60;;;;;;;14.00;72.57;100007.24;103170;1304;99245;-81
2022/10/28 08:44:41;;;;;;;12.40;4.20;;;;;;;14.23;72.13;100011.27;103108;1303;107581;-76
2022/10/28 08:47:18;;;;;;;11.70;4.50;;;;;;;14.46;71.81;100004.25;103124;1303;98942;-79
2022/10/28 08:49:54;;;;;;;13.50;4.20;;;;;;;14.66;71.99;100002.61;103148;1297;99438;-75
2022/10/28 08:52:32;;;;;;;9.00;4.00;;;;;;;14.92;72.10;100004.60;102969;1302;112475;-75
2022/10/28 08:55:11;;;;;;;9.20;4.10;;;;;;;15.26;72.04;100008.65;103147;1299;99285;-78
2022/10/28 08:57:48;;;;;;;9.30;3.90;;;;;;;15.67;72.28;100002.77;103133;1303;107504;-76
2022/10/28 09:00:23;;;;;;;8.40;4.00;;;;;;;16.06;71.19;99999.05;103125;1304;99319;-73
2022/10/28 09:03:09;;;;;;;11.10;3.70;;;;;;;16.39;71.59;99996.20;103096;1304;99284;-77
2022/10/28 09:05:40;;;;;;;8.20;3.80;;;;;;;16.81;71.22;100001.83;103121;1297;112556;-79
2022/10/28 09:08:30;;;;;;;8.40;3.70;;;;;;;17.22;70.31;100003.61;103204;1297;99228;-81
2022/10/28 09:11:42;;;;;;;12.20;3.30;;;;;;;17.75;71.09;100002.61;103171;1304;107213;-81
2022/10/28 09:14:26;;;;;;;7.50;3.20;;;;;;;18.53;71.00;99998.95;102604;1305;99357;-79
2022/10/28 09:17:17;;;;;;;8.30;3.60;;;;;;;19.14;70.61;99998.79;103115;1297;99253;-77
2022/10/28 09:19:57;;;;;;;6.30;3.40;;;;;;;19.56;70.17;100007.07;103070;1304;112577;-78
2022/10/28 09:22:47;;;;;;;6.80;3.40;;;;;;;19.85;69.77;100014.75;103060;1302;99129;-82
2022/10/28 09:25:47;;;;;;;6.10;3.50;;;;;;;20.05;69.75;100014.14;103041;1300;107438;-77
2022/10/28 09:28:42;;;;;;;6.80;3.50;;;;;;;20.08;69.76;100008.95;103079;1291;99201;-75
2022/10/28 09:31:29;;;;;;;8.70;3.60;;;;;;;20.11;69.51;100009.64;103065;1296;99317;-81
2022/10/28 09:34:21;;;;;;;9.10;3.50;;;;;;;20.16;69.85;100008.77;103067;1296;112101;-81
2022/10/28 09:36:57;;;;;;;9.30;3.60;;;;;;;20.23;69.57;100008.54;103126;1290;99279;-84
2022/10/28 09:39:40;;;;;;;8.20;3.70;;;;;;;20.25;69.15;100010.39;103127;1299;107468;-79
2022/10/28 09:42:17;;;;;;;7.90;3.30;;;;;;;20.22;68.89;100005.97;103234;1298;99290;-77
2022/10/28 09:44:50;;;;;;;7.70;3.70;;;;;;;20.12;68.72;100001.90;103137;1303;99911;-84
2022/10/28 09:47:24;;;;;;;8.10;3.90;;;;;;;19.92;67.93;99997.50;103216;1299;111264;-80
2022/10/28 09:49:58;;;;;;;6.30;3.50;;;;;;;19.76;67.35;99999.09;103096;1298;99112;-80
2022/10/28 09:52:36;;;;;;;11.00;4.10;;;;;;;19.57;67.68;99998.70;103042;1296;106469;-78
2022/10/28 09:55:18;;;;;;;7.70;3.60;;;;;;;19.49;68.04;99998.00;103008;1299;98421;-78
2022/10/28 09:57:47;;;;;;;10.10;3.60;;;;;;;19.56;68.04;99994.52;103068;1297;99466;-82
2022/10/28 10:00:16;;;;;;;6.80;3.50;;;;;;;19.62;67.84;99991.61;103198;1303;112659;-81
2022/10/28 10:02:44;;;;;;;8.70;3.90;;;;;;;19.65;66.52;99990.04;103100;1299;99424;-82
2022/10/28 10:05:15;;;;;;;8.30;3.70;;;;;;;19.57;66.81;99993.09;103041;1303;107229;-81
2022/10/28 10:07:52;;;;;;;8.80;3.80;;;;;;;19.61;67.03;99990.43;103118;1302;99225;-75
2022/10/28 10:10:47;;;;;;;10.50;4.20;;;;;;;19.69;66.98;99984.23;103114;1304;96580;-76
2022/10/28 10:13:23;;;;;;;7.80;3.40;;;;;;;19.75;66.34;99980.30;103036;1303;112540;-76
2022/10/28 10:15:55;;;;;;;13.70;4.20;;;;;;;19.75;65.91;99971.23;103087;1306;99345;-76
2022/10/28 10:18:28;;;;;;;9.70;3.40;;;;;;;19.75;65.41;99974.34;103052;1297;107439;-75
2022/10/28 10:20:57;;;;;;;7.30;3.40;;;;;;;19.75;65.34;99973.25;103081;1297;99326;-75
2022/10/28 10:23:30;;;;;;;10.00;4.10;;;;;;;19.74;65.17;99968.64;103079;1296;97205;-75
2022/10/28 10:26:11;;;;;;;7.80;3.10;;;;;;;19.71;65.35;99968.27;103128;1297;112479;-75
2022/10/28 10:28:45;;;;;;;5.80;3.20;;;;;;;19.72;64.52;99966.16;103078;1296;99341;-73
2022/10/28 10:31:28;;;;;;;8.10;3.50;;;;;;;19.78;65.05;99962.71;103146;1299;107961;-78
2022/10/28 10:33:57;;;;;;;7.20;3.10;;;;;;;19.87;64.90;99964.17;103077;1298;99266;-77
2022/10/28 10:36:27;;;;;;;11.10;3.70;;;;;;;19.96;64.91;99961.20;103142;1297;99284;-80
2022/10/28 10:38:58;;;;;;;9.90;3.40;;;;;;;20.07;64.56;99960.22;103060;1304;112450;-78
2022/10/28 10:41:43;;;;;;;7.40;3.30;;;;;;;20.13;64.53;99963.52;103080;1299;99291;-76
2022/10/28 10:44:20;;;;;;;7.20;3.10;;;;;;;20.19;64.50;99964.84;103074;1294;107507;-78
2022/10/28 10:46:54;;;;;;;11.40;3.30;;;;;;;20.26;64.31;99967.20;103030;1296;97790;-80
2022/10/28 10:49:21;;;;;;;10.00;3.60;;;;;;;20.36;64.21;99967.48;103038;1300;96638;-77
2022/10/28 10:51:51;;;;;;;8.80;3.80;;;;;;;20.36;63.28;99963.05;103041;1304;111708;-78
2022/10/28 10:54:20;;;;;;;8.40;3.80;;;;;;;20.32;63.27;99963.73;103134;1298;99361;-79
2022/10/28 10:56:47;;;;;;;10.60;3.30;;;;;;;20.34;63.24;99962.98;103043;1296;108130;-86
2022/10/28 10:59:23;;;;;;;12.20;3.40;;;;;;;20.43;62.69;99959.66;103274;1296;99313;-81
2022/10/28 11:01:54;;;;;;;7.60;3.50;;;;;;;20.47;62.91;99955.77;103042;1290;100359;-78
2022/10/28 11:04:26;;;;;;;9.90;3.40;;;;;;;20.52;62.80;99953.35;103045;1297;113102;-79
2022/10/28 11:06:56;;;;;;;6.50;3.70;;;;;;;20.40;61.91;99949.85;103078;1298;99324;-79
2022/10/28 11:09:38;;;;;;;10.10;3.80;;;;;;;20.35;62.26;99948.36;103074;1300;107440;-78
2022/10/28 11:12:30;;;;;;;7.30;3.50;;;;;;;20.31;62.38;99942.11;103089;1304;99354;-78
2022/10/28 11:15:22;;;;;;;7.80;3.70;;;;;;;20.32;62.41;99940.73;103110;1288;99314;-77
2022/10/28 11:18:22;;;;;;;6.50;3.40;;;;;;;20.36;62.27;99939.38;103093;1298;113045;-77
2022/10/28 11:21:06;;;;;;;8.70;3.80;;;;;;;20.38;61.70;99939.75;102877;1309;99188;-76
2022/10/28 11:23:48;;;;;;;9.30;3.70;;;;;;;20.32;61.64;99939.48;103071;1303;107506;-79
2022/10/28 11:26:20;;;;;;;8.20;3.60;;;;;;;20.35;61.48;99943.70;103076;1296;99226;-79
2022/10/28 11:29:01;;;;;;;11.00;3.80;;;;;;;20.38;61.50;99943.90;103135;1301;96562;-78
2022/10/28 11:31:50;;;;;;;11.70;4.20;;;;;;;20.46;61.69;99943.29;103049;1297;112141;-78
2022/10/28 11:34:27;;;;;;;11.80;4.10;;;;;;;20.50;61.33;99939.65;103092;1304;99349;-78
2022/10/28 11:37:12;;;;;;;14.10;4.90;;;;;;;20.52;60.72;99937.48;103061;1303;106563;-76
2022/10/28 11:40:14;;;;;;;16.90;5.90;;;;;;;20.52;60.94;99936.77;103582;1311;99310;-75